< Typhoon 201820 2018 Season Typhoon 201822 >
Typhoon 201821 (JEBI)
General InformationTrack Information on Google MapsDetailed Wind InformationForecast History on Google MapsAccess Analytics MapList of All Images || NewsDisaster Info.WeblogTrackbackTyphoon FrontTwiphoonTyphoon Now!Typhoon ImaginationJMA Disaster Info. XMLResourceGoogle EarthGE AnimationAtom FeedGeoJSON
Detalied Best Track (Time Zone = UTC)
Year Month Day Hour Lat. Long. Pressure (hPa) Wind (kt) Class Image Chart
2018 8 26 18 11.0 160.5 1008 0 2 Image Chart
2018 8 27 00 11.9 159.7 1008 0 2 Image Chart
2018 8 27 06 12.8 159.2 1008 0 2 Image Chart
2018 8 27 12 13.6 158.9 1008 0 2 Image Chart
2018 8 27 18 14.5 157.9 1004 35 3 Image Chart
2018 8 28 00 15.4 157.0 1000 40 3 Image Chart
2018 8 28 06 16.2 156.3 1000 40 3 Image Chart
2018 8 28 12 16.6 155.6 996 45 3 Image Chart
2018 8 28 18 16.7 154.4 992 50 4 Image Chart
2018 8 29 00 17.0 153.5 990 60 4 Image Chart
2018 8 29 06 17.3 152.3 985 65 5 Image Chart
2018 8 29 12 17.3 151.4 980 70 5 Image Chart
2018 8 29 18 17.4 150.5 965 80 5 Image Chart
2018 8 30 00 17.6 149.1 955 85 5 Image Chart
2018 8 30 06 17.7 148.1 940 90 5 Image Chart
2018 8 30 12 17.8 146.9 935 95 5 Image Chart
2018 8 30 18 17.8 145.4 925 100 5 Image Chart
2018 8 31 00 17.9 144.2 915 105 5 Image Chart
2018 8 31 06 18.3 142.7 915 105 5 Image Chart
2018 8 31 12 18.5 141.5 915 105 5 Image Chart
2018 8 31 18 19.1 140.2 915 105 5 Image Chart
2018 9 1 00 19.6 139.2 915 105 5 Image Chart
2018 9 1 06 20.4 138.3 915 105 5 Image Chart
2018 9 1 12 21.0 137.3 925 100 5 Image Chart
2018 9 1 18 21.8 136.5 935 95 5 Image Chart
2018 9 2 00 22.7 135.8 935 95 5 Image Chart
2018 9 2 06 23.7 135.0 935 95 5 Image Chart
2018 9 2 12 24.5 134.4 935 95 5 Image Chart
2018 9 2 18 25.5 133.8 935 95 5 Image Chart
2018 9 3 00 26.6 133.2 940 90 5 Image Chart
2018 9 3 06 27.5 132.6 940 90 5 Image Chart
2018 9 3 12 28.6 132.6 940 90 5 Image Chart
2018 9 3 15 29.4 132.6 945 85 5 Image Chart
2018 9 3 18 30.3 132.8 945 85 5 Image Chart
2018 9 3 21 31.3 133.2 950 85 5 Image Chart
2018 9 4 00 32.4 133.7 950 85 5 Image Chart
2018 9 4 02 33.3 134.2 950 85 5 Image Chart
2018 9 4 03 33.8 134.5 950 85 5 Image Chart
2018 9 4 04 34.3 134.8 955 85 5 Image Chart
2018 9 4 06 35.6 135.7 965 75 5 Image Chart
2018 9 4 09 37.1 136.4 965 70 5 Image Chart
2018 9 4 12 39.2 137.7 970 65 5 Image Chart
2018 9 4 15 41.3 139.2 975 50 4 Image Chart
2018 9 4 18 43.2 139.9 975 50 4 Image Chart
2018 9 4 21 45.0 140.2 975 50 4 Image Chart
2018 9 5 00 46.5 139.0 976 0 6 Image Chart
2018 9 5 06 49.3 137.5 976 0 6 Image Chart
2018 9 5 12 51.2 136.3 980 0 6 Image Chart
2018 9 5 18 52.8 136.2 980 0 6 Image Chart
2018 9 6 00 54.0 136.5 982 0 6 Image Chart
2018 9 6 06 54.9 136.9 984 0 6 Image Chart
2018 9 6 12 55.7 137.5 986 0 6 Image Chart
2018 9 6 18 56.7 137.8 990 0 6 Image Chart
2018 9 7 00 58.7 137.8 992 0 6 Image Chart
2018 9 7 06 62.1 136.3 996 0 6 Image Chart
Japan Meteorological Agency Best Track Data | Correction Date : 2018-10-19
< Typhoon 201820 2018 Season Typhoon 201822 >

Help